Nearby METAR Reports

 

K1V4 - St. Johnsbury, Vermont, USA
Distance from station: NNW 15mi, 24km
Updated: 05/06/2021 2:54am

 
Temperature: 48°F , 9°C
Dew Point: 43°F , 6°C
Humidity: 82%
Barometer: 29.71 inHg , 1006.1 hPa
2021/05/06 06:54 K1V4 060654Z AUTO 09/06 A2971 RMK AO1 SLP062 T00890061
KHIE - Whitefield, New Hampshire, USA
Distance from station: ENE 21mi, 34km
Updated: 05/06/2021 2:52am
Overcast
Overcast
 Wind from W
Wind: W 6 mph , 9 km/h
Temperature: 46°F , 8°C
Wind Chill: 43°F , 6°C
Dew Point: 43°F , 6°C
Humidity: 87%
Barometer: 29.70 inHg , 1005.8 hPa
Clouds: Overcast
Visibility: 10 miles , 16 km
Cloud details: Partly cloudy 1400 ft
Overcast 1900 ft
2021/05/06 06:52 KHIE 060652Z AUTO 27005KT 10SM SCT014 OVC019 08/06 A2970 RMK AO2 RAE07 SLP063 P0001 T00780061
KCDA - Lyndonville, Vermont, USA
Distance from station: NNW 25mi, 40km
Updated: 05/06/2021 2:55am
Overcast
Overcast
 Wind from WSW
Wind: WSW 12 mph , 19 km/h, Gust: 16 mph , 26 km/h
Temperature: 45°F , 7°C
Wind Chill: 39°F , 4°C
Dew Point: 43°F , 6°C
Humidity: 93%
Barometer: 29.73 inHg , 1006.8 hPa
Clouds: Overcast
Visibility: 10 miles , 16 km
Cloud details: Mostly cloudy 1700 ft
Mostly cloudy 2100 ft
Overcast 3600 ft
2021/05/06 06:55 KCDA 060655Z AUTO 25010G14KT 10SM BKN017 BKN021 OVC036 07/06 A2973 RMK AO2 T00700058
 
K1P1 - Plymouth, New Hampshire, USA
Distance from station: SSE 31mi, 49km
Updated: 05/06/2021 2:55am
Overcast
Overcast
 Wind from W
Wind: W 10 mph , 17 km/h
Temperature: 48°F , 9°C
Wind Chill: 44°F , 7°C
Dew Point: 45°F , 7°C
Humidity: 87%
Barometer: 29.71 inHg , 1006.1 hPa
Clouds: Overcast
Visibility: 10 miles , 16 km
Cloud details: Mostly cloudy 2300 ft
Overcast 3900 ft
2021/05/06 06:55 K1P1 060655Z AUTO 28009KT 10SM BKN023 OVC039 09/07 A2971 RMK AO2 T00930065
KMWN - Mount Washington, New Hampshire, USA
Distance from station: E 31mi, 49km
Updated: 05/06/2021 2:56am
Light freezing, Drizzle, Freezing, Fog, Overcast
Light freezing, Drizzle, Freezing, Fog, Overcast
 Wind from WNW
Wind: WNW 56 mph , 91 km/h, Gust: 63 mph , 102 km/h
Temperature: 28°F , -2°C
Wind Chill: 8°F , -13°C
Dew Point: 28°F , -2°C
Humidity: 100%
Summary: Light freezing, Drizzle, Freezing, Fog
Clouds: Overcast
Visibility: 1/16 mile , 0.1 km
Cloud details: Overcast 0 ft
2021/05/06 06:56 KMWN 060656Z 30049G55KT 1/16SM -FZDZ FZFG VV000 M02/M02 RMK PLE10FZDZB10 VRY LGT GICG
KMPV - Montpelier/Barre, Vermont, USA
Distance from station: W 32mi, 52km
Updated: 05/06/2021 3:08am
Overcast
Overcast
 Wind from NW
Wind: NW 15 mph , 24 km/h, Gust: 25 mph , 41 km/h
Temperature: 43°F , 6°C
Wind Chill: 36°F , 2°C
Dew Point: 41°F , 5°C
Humidity: 93%
Barometer: 29.79 inHg , 1008.8 hPa
Clouds: Overcast
Visibility: 10 miles , 16 km
Cloud details: Mostly cloudy 1400 ft
Overcast 1900 ft
2021/05/06 07:08 KMPV 060708Z AUTO 31013G22KT 10SM BKN014 OVC019 06/05 A2979 RMK AO2 RAE0653 P0000 T00610050
 
KMVL - Morrisville, Vermont, USA
Distance from station: WNW 41mi, 66km
Updated: 05/06/2021 2:54am
Overcast
Overcast
 Wind from NW
Wind: NW 6 mph , 9 km/h
Temperature: 46°F , 8°C
Wind Chill: 43°F , 6°C
Dew Point: 43°F , 6°C
Humidity: 87%
Barometer: 29.77 inHg , 1008.1 hPa
Clouds: Overcast
Visibility: 9 miles , 14 km
Cloud details: Mostly cloudy 1800 ft
Overcast 2700 ft
2021/05/06 06:54 KMVL 060654Z AUTO 32005KT 9SM BKN018 OVC027 08/06 A2977 RMK AO2 RAB15E40 SLP084 P0001 T00780056
KBML - Berlin, New Hampshire, USA
Distance from station: NE 44mi, 71km
Updated: 05/06/2021 2:52am
Overcast
Overcast
 Wind from varies
Wind: varies 3 mph , 6 km/h
Temperature: 46°F , 8°C
Dew Point: 43°F , 6°C
Humidity: 87%
Barometer: 29.67 inHg , 1004.7 hPa
Clouds: Overcast
Visibility: 10 miles , 16 km
Cloud details: Partly cloudy 2400 ft
Overcast 2900 ft
2021/05/06 06:52 KBML 060652Z AUTO VRB03KT 10SM SCT024 OVC029 08/06 A2967 RMK AO2 SLP052 T00830061
KLEB - Lebanon, New Hampshire, USA
Distance from station: SSW 44mi, 71km
Updated: 05/06/2021 2:53am
Overcast
Overcast
 Wind from calm
Wind: Calm
Temperature: 50°F , 10°C
Dew Point: 45°F , 7°C
Humidity: 82%
Barometer: 29.75 inHg , 1007.5 hPa
Clouds: Overcast
Visibility: 10 miles , 16 km
Cloud details: Few Clouds 1600 ft
Overcast 3400 ft
2021/05/06 06:53 KLEB 060653Z AUTO 00000KT 10SM FEW016 OVC034 10/07 A2975 RMK AO2 SLP072 T01000067
 
KEFK - Newport State, Vermont, USA
Distance from station: NNW 49mi, 79km
Updated: 05/06/2021 2:55am
Light rain, Overcast
Light rain, Overcast
 Wind from WNW
Wind: WNW 8 mph , 13 km/h, Gust: 16 mph , 26 km/h
Temperature: 45°F , 7°C
Wind Chill: 41°F , 5°C
Dew Point: 43°F , 6°C
Humidity: 93%
Barometer: 29.75 inHg , 1007.5 hPa
Summary: Light rain
Clouds: Overcast
Visibility: 10 miles , 16 km
Cloud details: Overcast 1100 ft
2021/05/06 06:55 KEFK 060655Z AUTO 30007G14KT 10SM -RA OVC011 07/06 A2975 RMK AO2 T00710060
KIZG - Fryeburg, Maine, USA
Distance from station: ESE 50mi, 81km
Updated: 05/06/2021 3:09am
Mostly cloudy
Mostly cloudy
 Wind from calm
Wind: Calm
Temperature: 45°F , 7°C
Dew Point: 43°F , 6°C
Humidity: 93%
Barometer: 29.67 inHg , 1004.7 hPa
Clouds: Mostly cloudy
Visibility: 10 miles , 16 km
Cloud details: Mostly cloudy 400 ft
Mostly cloudy 4000 ft
Mostly cloudy 7500 ft
2021/05/06 07:09 KIZG 060709Z AUTO 00000KT 10SM BKN004 BKN040 BKN075 07/06 A2967 RMK AO2 T00670056
KLCI - Laconia Muni, New Hampshire, USA
Distance from station: SSE 51mi, 82km
Updated: 05/06/2021 2:56am
Overcast
Overcast
 Wind from W
Wind: W 6 mph , 9 km/h
Temperature: 48°F , 9°C
Wind Chill: 45°F , 7°C
Dew Point: 45°F , 7°C
Humidity: 87%
Barometer: 29.70 inHg , 1005.8 hPa
Clouds: Overcast
Visibility: 10 miles , 16 km
Cloud details: Mostly cloudy 2600 ft
Overcast 3200 ft
2021/05/06 06:56 KLCI 060656Z AUTO 28005KT 10SM BKN026 OVC032 09/07 A2970 RMK AO2 SLP059 T00940072
 
K6B0 - Middlebury, Vermont, USA
Distance from station: WSW 61mi, 98km
Updated: 05/06/2021 2:55am
Overcast
Overcast
 Wind from NNW
Wind: NNW 3 mph , 6 km/h
Temperature: 46°F , 8°C
Dew Point: 43°F , 6°C
Humidity: 87%
Barometer: 29.80 inHg , 1009.1 hPa
Clouds: Overcast
Visibility: 10 miles , 16 km
Cloud details: Overcast 3900 ft
2021/05/06 06:55 K6B0 060655Z AUTO 34003KT 10SM OVC039 08/06 A2980 RMK AO2 T00770055
KBTV - Burlington, Vermont, USA
Distance from station: WNW 63mi, 102km
Updated: 05/06/2021 2:54am
Overcast
Overcast
 Wind from NW
Wind: NW 13 mph , 20 km/h
Temperature: 48°F , 9°C
Wind Chill: 43°F , 6°C
Dew Point: 39°F , 4°C
Humidity: 71%
Barometer: 29.80 inHg , 1009.1 hPa
Clouds: Overcast
Visibility: 10 miles , 16 km
Cloud details: Mostly cloudy 3800 ft
Overcast 4800 ft
2021/05/06 06:54 KBTV 060654Z 32011KT 10SM BKN038 OVC048 09/04 A2980 RMK AO2 SLP092 T00890044 $
KVSF - Springfield, Vermont, USA
Distance from station: SSW 67mi, 107km
Updated: 05/06/2021 2:54am
Mostly cloudy
Mostly cloudy
 Wind from calm
Wind: Calm
Temperature: 45°F , 7°C
Dew Point: 43°F , 6°C
Humidity: 93%
Barometer: 29.76 inHg , 1007.8 hPa
Clouds: Mostly cloudy
Visibility: 10 miles , 16 km
Cloud details: Few Clouds 2600 ft
Mostly cloudy 3200 ft
2021/05/06 06:54 KVSF 060654Z AUTO 00000KT 10SM FEW026 BKN032 07/06 A2976 RMK AO2 SLP080 T00720061
 
KRUT - Rutland State, Vermont, USA
Distance from station: SW 70mi, 113km
Updated: 05/06/2021 2:56am
Overcast
Overcast
 Wind from NNW
Wind: NNW 8 mph , 13 km/h
Temperature: 46°F , 8°C
Wind Chill: 42°F , 6°C
Dew Point: 46°F , 8°C
Humidity: 100%
Barometer: 29.78 inHg , 1008.5 hPa
Clouds: Overcast
Visibility: 10 miles , 16 km
Cloud details: Mostly cloudy 1900 ft
Mostly cloudy 2900 ft
Overcast 3900 ft
2021/05/06 06:56 KRUT 060656Z AUTO 34007KT 10SM BKN019 BKN029 OVC039 08/08 A2978 RMK AO2 RAE14 SLP081 P0003 T00780078 $
CWFQ - Frelighsburg, Quebec, Canada
Distance from station: NW 72mi, 116km
Updated: 05/06/2021 3:00am

 Wind from NW
Wind: NW 5 mph , 7 km/h
Temperature: 43°F , 6°C
Wind Chill: 40°F , 4°C
Dew Point: 43°F , 6°C
Humidity: 100%
2021/05/06 07:00 CWFQ 060700Z AUTO 31004KT 06/06 RMK AO1 SLP083 T00550059 53007
KCON - Concord, New Hampshire, USA
Distance from station: SSE 73mi, 117km
Updated: 05/06/2021 3:06am
Overcast
Overcast
 Wind from NW
Wind: NW 7 mph , 11 km/h
Temperature: 48°F , 9°C
Wind Chill: 45°F , 7°C
Dew Point: 45°F , 7°C
Humidity: 87%
Barometer: 29.71 inHg , 1006.1 hPa
Clouds: Overcast
Visibility: 10 miles , 16 km
Cloud details: Overcast 2900 ft
2021/05/06 07:06 KCON 060706Z AUTO 31006KT 10SM OVC029 09/07 A2971 RMK AO2 T00940072
 
CWTT - Lac Memphremagog, Quebec, Canada
Distance from station: N 74mi, 119km
Updated: 05/06/2021 3:00am

 Wind from NW
Wind: NW 14 mph , 22 km/h, Gust: 22 mph , 35 km/h
Temperature: 46°F , 8°C
Wind Chill: 40°F , 4°C
Dew Point: 43°F , 6°C
Humidity: 87%
2021/05/06 07:00 CWTT 060700Z AUTO 32012G19KT 08/06 RMK AO1 PK WND 32019/0652 T00770056
KFSO - Highgate, Vermont, USA
Distance from station: NW 77mi, 123km
Updated: 05/06/2021 3:16am
Overcast
Overcast
 Wind from WNW
Wind: WNW 5 mph , 7 km/h
Temperature: 46°F , 8°C
Wind Chill: 44°F , 7°C
Dew Point: 41°F , 5°C
Humidity: 82%
Barometer: 29.79 inHg , 1008.8 hPa
Clouds: Overcast
Visibility: 10 miles , 16 km
Cloud details: Partly cloudy 2900 ft
Mostly cloudy 3400 ft
Overcast 4000 ft
2021/05/06 07:16 KFSO 060716Z AUTO 30004KT 10SM SCT029 BKN034 OVC040 08/05 A2979 RMK AO2 T00820049